Time;durP1;ratioP1;P1;durP2;ratioP2;P2;SDS_P1;SDS_P2;PMS_P1;PMS_P2;Temp;Humidity;BMP_temperature;BMP_pressure;BME280_temperature;BME280_humidity;BME280_pressure;Samples;Min_cycle;Max_cycle;Signal;HPM_P1;HPM_P2
2023/04/05 00:00:26;;;;;;;;;;;;;;;1.42;nan;101223.50;5042908;28;19940;-84
2023/04/05 00:02:53;;;;;;;;;;;;;;;1.38;nan;101228.94;5034478;28;19932;-83
2023/04/05 00:05:28;;;;;;;;;;;;;;;1.28;nan;101215.53;5018900;28;19924;-84
2023/04/05 00:07:53;;;;;;;;;;;;;;;1.22;nan;101216.69;5013785;28;19921;-84
2023/04/05 00:10:18;;;;;;;;;;;;;;;1.19;nan;101223.78;5012360;28;19921;-84
2023/04/05 00:12:43;;;;;;;;;;;;;;;1.15;nan;101227.47;5021246;28;19918;-83
2023/04/05 00:15:09;;;;;;;;;;;;;;;1.09;nan;101225.16;5033746;28;19918;-84
2023/04/05 00:17:34;;;;;;;;;;;;;;;1.02;nan;101220.22;5032669;28;19960;-83
2023/04/05 00:20:00;;;;;;;;;;;;;;;0.95;nan;101212.78;5019322;28;19921;-84
2023/04/05 00:22:26;;;;;;;;;;;;;;;0.96;nan;101209.28;5021821;28;19947;-83
2023/04/05 00:24:51;;;;;;;;;;;;;;;1.01;nan;101212.50;5014142;28;19921;-84
2023/04/05 00:27:16;;;;;;;;;;;;;;;1.02;nan;101208.97;5016176;28;19929;-83
2023/04/05 00:29:41;;;;;;;;;;;;;;;0.97;nan;101210.97;5019629;28;20551;-84
2023/04/05 00:32:06;;;;;;;;;;;;;;;0.87;nan;101210.56;5023528;28;20007;-85
2023/04/05 00:34:32;;;;;;;;;;;;;;;0.78;nan;101209.22;5020884;28;19916;-85
2023/04/05 00:36:57;;;;;;;;;;;;;;;0.73;nan;101203.38;5013441;28;19994;-86
2023/04/05 00:39:23;;;;;;;;;;;;;;;0.69;nan;101201.00;5017563;28;19995;-84
2023/04/05 00:41:48;;;;;;;;;;;;;;;0.69;nan;101203.59;5026135;28;20003;-84
2023/04/05 00:44:13;;;;;;;;;;;;;;;0.68;nan;101200.16;5017018;28;20445;-83
2023/04/05 00:46:39;;;;;;;;;;;;;;;0.68;nan;101204.53;5015525;28;20021;-84
2023/04/05 00:49:04;;;;;;;;;;;;;;;0.67;nan;101201.09;5013635;28;20004;-85
2023/04/05 00:51:32;;;;;;;;;;;;;;;0.66;nan;101199.38;5036105;28;20391;-84
2023/04/05 00:53:58;;;;;;;;;;;;;;;0.66;nan;101198.53;5030029;28;19968;-83
2023/04/05 00:56:24;;;;;;;;;;;;;;;0.63;nan;101202.13;5020911;28;19956;-83
2023/04/05 00:58:50;;;;;;;;;;;;;;;0.59;nan;101195.38;5013120;28;19921;-84
2023/04/05 01:01:17;;;;;;;;;;;;;;;0.57;nan;101192.88;5031527;28;19917;-84
2023/04/05 01:03:48;;;;;;;;;;;;;;;0.51;nan;101197.50;5019874;28;19966;-86
2023/04/05 01:06:29;;;;;;;;;;;;;;;0.43;nan;101190.06;5046698;28;20004;-84
2023/04/05 01:09:05;;;;;;;;;;;;;;;0.36;nan;101199.91;5040100;28;19972;-83
2023/04/05 01:11:32;;;;;;;;;;;;;;;0.26;nan;101198.59;5022597;28;19928;-83
2023/04/05 01:13:58;;;;;;;;;;;;;;;0.16;nan;101192.13;5039352;28;19917;-84
2023/04/05 01:16:24;;;;;;;;;;;;;;;0.10;nan;101198.47;5024770;28;19924;-84
2023/04/05 01:18:55;;;;;;;;;;;;;;;0.08;nan;101187.28;5034992;28;20275;-85
2023/04/05 01:21:32;;;;;;;;;;;;;;;0.03;nan;101185.81;5043570;28;20067;-83
2023/04/05 01:24:11;;;;;;;;;;;;;;;0.00;nan;101184.19;5017722;28;19921;-83
2023/04/05 01:26:45;;;;;;;;;;;;;;;-0.03;nan;101176.50;5037844;28;19972;-83
2023/04/05 01:29:16;;;;;;;;;;;;;;;-0.02;nan;101173.00;5020221;28;19925;-85
2023/04/05 01:31:48;;;;;;;;;;;;;;;0.02;nan;101169.34;5038680;28;19940;-84
2023/04/05 01:34:43;;;;;;;;;;;;;;;0.03;nan;101165.84;5016043;28;19999;-85
2023/04/05 01:37:11;;;;;;;;;;;;;;;0.05;nan;101174.44;4962922;28;19953;-84
2023/04/05 01:39:36;;;;;;;;;;;;;;;0.05;nan;101171.81;5040282;28;19927;-84
2023/04/05 01:42:04;;;;;;;;;;;;;;;0.09;nan;101175.13;5045870;28;20382;-83
2023/04/05 01:44:29;;;;;;;;;;;;;;;0.14;nan;101173.16;5016312;28;19917;-84
2023/04/05 01:46:55;;;;;;;;;;;;;;;0.22;nan;101170.22;5020491;28;20016;-84
2023/04/05 01:49:21;;;;;;;;;;;;;;;0.26;nan;101171.75;5022318;28;19975;-84
2023/04/05 01:51:46;;;;;;;;;;;;;;;0.22;nan;101165.03;5037699;28;19956;-84
2023/04/05 01:54:12;;;;;;;;;;;;;;;0.16;nan;101169.56;5037269;28;20313;-83
2023/04/05 01:56:37;;;;;;;;;;;;;;;0.11;nan;101162.91;5020833;28;19975;-83
2023/04/05 01:59:02;;;;;;;;;;;;;;;0.03;nan;101165.84;5030253;28;19936;-83
2023/04/05 02:01:27;;;;;;;;;;;;;;;-0.05;nan;101161.00;5032758;28;19921;-85
2023/04/05 02:03:52;;;;;;;;;;;;;;;-0.09;nan;101163.78;5015194;28;19969;-85
2023/04/05 02:06:17;;;;;;;;;;;;;;;-0.09;nan;101163.78;5012050;28;20413;-83
2023/04/05 02:08:43;;;;;;;;;;;;;;;-0.02;nan;101152.22;5030048;28;19921;-84
2023/04/05 02:11:08;;;;;;;;;;;;;;;0.05;nan;101151.03;5031232;28;20011;-84
2023/04/05 02:13:33;;;;;;;;;;;;;;;0.06;nan;101152.69;5012852;28;19932;-85
2023/04/05 02:15:58;;;;;;;;;;;;;;;0.10;nan;101156.84;5013065;28;19921;-83
2023/04/05 02:18:30;;;;;;;;;;;;;;;0.11;nan;101161.13;5014000;28;19932;-83
2023/04/05 02:21:02;;;;;;;;;;;;;;;0.04;nan;101157.13;5013908;28;20016;-87
2023/04/05 02:23:29;;;;;;;;;;;;;;;-0.01;nan;101159.94;5012075;28;19948;-84
2023/04/05 02:25:54;;;;;;;;;;;;;;;-0.06;nan;101161.06;5032503;28;19925;-84
2023/04/05 02:28:19;;;;;;;;;;;;;;;-0.14;nan;101158.81;5010297;28;19982;-85
2023/04/05 02:30:45;;;;;;;;;;;;;;;-0.21;nan;101157.38;5011947;28;19932;-82
2023/04/05 02:33:10;;;;;;;;;;;;;;;-0.29;nan;101159.44;5011442;28;19921;-83
2023/04/05 02:35:35;;;;;;;;;;;;;;;-0.32;nan;101170.00;5011826;28;21462;-86
2023/04/05 02:38:03;;;;;;;;;;;;;;;-0.38;nan;101165.91;5030763;28;19948;-85
2023/04/05 02:40:28;;;;;;;;;;;;;;;-0.34;nan;101161.41;5011224;28;20379;-85
2023/04/05 02:42:53;;;;;;;;;;;;;;;-0.28;nan;101168.94;5014647;28;20003;-84
2023/04/05 02:45:19;;;;;;;;;;;;;;;-0.26;nan;101162.78;5011481;28;19925;-85
2023/04/05 02:47:44;;;;;;;;;;;;;;;-0.14;nan;101158.81;5010686;28;19929;-84
2023/04/05 02:50:09;;;;;;;;;;;;;;;-0.08;nan;101158.50;5013628;28;19932;-84
2023/04/05 02:52:36;;;;;;;;;;;;;;;0.02;nan;101153.75;5010563;28;19921;-85
2023/04/05 02:55:01;;;;;;;;;;;;;;;0.09;nan;101155.16;5012381;28;19930;-86
2023/04/05 02:57:26;;;;;;;;;;;;;;;0.09;nan;101143.91;5012101;28;19921;-85
2023/04/05 02:59:51;;;;;;;;;;;;;;;0.08;nan;101145.69;5012056;28;19921;-84
2023/04/05 03:02:17;;;;;;;;;;;;;;;0.03;nan;101142.44;5012236;28;20008;-85
2023/04/05 03:04:43;;;;;;;;;;;;;;;0.02;nan;101145.94;5010451;28;19921;-85
2023/04/05 03:07:09;;;;;;;;;;;;;;;-0.02;nan;101144.41;5012066;28;20024;-84
2023/04/05 03:09:37;;;;;;;;;;;;;;;-0.03;nan;101147.91;5012049;28;19953;-84
2023/04/05 03:12:02;;;;;;;;;;;;;;;-0.05;nan;101147.13;5013077;28;20394;-85
2023/04/05 03:14:31;;;;;;;;;;;;;;;-0.07;nan;101149.81;5032066;28;20001;-84
2023/04/05 03:16:56;;;;;;;;;;;;;;;-0.08;nan;101142.91;5030090;28;20345;-83
2023/04/05 03:19:23;;;;;;;;;;;;;;;-0.08;nan;101137.72;5012666;28;19933;-86
2023/04/05 03:21:48;;;;;;;;;;;;;;;-0.05;nan;101140.19;5031529;28;19924;-84
2023/04/05 03:24:14;;;;;;;;;;;;;;;-0.08;nan;101148.13;5010425;28;19927;-85
2023/04/05 03:26:40;;;;;;;;;;;;;;;-0.11;nan;101143.06;5011242;28;19968;-84
2023/04/05 03:29:05;;;;;;;;;;;;;;;-0.10;nan;101139.53;5029636;28;19967;-83
2023/04/05 03:31:30;;;;;;;;;;;;;;;-0.05;nan;101141.94;5009883;28;20365;-83
2023/04/05 03:33:56;;;;;;;;;;;;;;;-0.06;nan;101145.47;5010451;28;19947;-84
2023/04/05 03:36:21;;;;;;;;;;;;;;;-0.09;nan;101145.59;5011064;28;19968;-84
2023/04/05 03:38:46;;;;;;;;;;;;;;;-0.06;nan;101140.25;5011431;28;19944;-85
2023/04/05 03:41:11;;;;;;;;;;;;;;;-0.08;nan;101145.50;5027984;28;20318;-84
2023/04/05 03:43:36;;;;;;;;;;;;;;;-0.12;nan;101140.50;5026844;28;20389;-84
2023/04/05 03:46:02;;;;;;;;;;;;;;;-0.16;nan;101132.03;5028493;28;19932;-83
2023/04/05 03:48:27;;;;;;;;;;;;;;;-0.15;nan;101136.28;5010114;28;19936;-83
2023/04/05 03:50:52;;;;;;;;;;;;;;;-0.17;nan;101135.50;5013066;28;19921;-83
2023/04/05 03:53:17;;;;;;;;;;;;;;;-0.19;nan;101126.09;5021680;28;20368;-84
2023/04/05 03:55:48;;;;;;;;;;;;;;;-0.25;nan;101129.81;5016179;28;20686;-88
2023/04/05 03:58:13;;;;;;;;;;;;;;;-0.37;nan;101123.41;5012781;28;19925;-85
2023/04/05 04:00:38;;;;;;;;;;;;;;;-0.46;nan;101131.59;5012061;28;19991;-84
2023/04/05 04:03:03;;;;;;;;;;;;;;;-0.51;nan;101128.38;5017351;28;20401;-85
2023/04/05 04:05:28;;;;;;;;;;;;;;;-0.53;nan;101123.22;5014144;28;19951;-84
2023/04/05 04:07:54;;;;;;;;;;;;;;;-0.49;nan;101132.59;5013451;28;19921;-85
2023/04/05 04:10:19;;;;;;;;;;;;;;;-0.34;nan;101128.47;5012269;28;19936;-82
2023/04/05 04:12:44;;;;;;;;;;;;;;;-0.28;nan;101128.22;5012419;28;19921;-84
2023/04/05 04:15:10;;;;;;;;;;;;;;;-0.29;nan;101126.50;5011647;28;19947;-83
2023/04/05 04:17:36;;;;;;;;;;;;;;;-0.30;nan;101124.00;5030729;28;19921;-83
2023/04/05 04:20:07;;;;;;;;;;;;;;;-0.31;nan;101119.69;5036624;28;19925;-84
2023/04/05 04:22:32;;;;;;;;;;;;;;;-0.30;nan;101122.22;5012577;28;20160;-85
2023/04/05 04:25:01;;;;;;;;;;;;;;;-0.24;nan;101118.50;5018925;28;19944;-85
2023/04/05 04:27:28;;;;;;;;;;;;;;;-0.18;nan;101123.44;5036838;28;19921;-85
2023/04/05 04:29:55;;;;;;;;;;;;;;;-0.15;nan;101119.88;5017910;28;19940;-84
2023/04/05 04:32:25;;;;;;;;;;;;;;;-0.10;nan;101117.91;5021425;28;19944;-85
2023/04/05 04:34:54;;;;;;;;;;;;;;;-0.06;nan;101112.50;5016507;28;19921;-84
2023/04/05 04:37:21;;;;;;;;;;;;;;;-0.04;nan;101123.66;5016863;28;19928;-83
2023/04/05 04:39:47;;;;;;;;;;;;;;;-0.06;nan;101117.69;5017658;28;19963;-85
2023/04/05 04:42:13;;;;;;;;;;;;;;;-0.11;nan;101121.41;5015481;28;19947;-85
2023/04/05 04:44:41;;;;;;;;;;;;;;;-0.15;nan;101115.50;5015711;28;20165;-84
2023/04/05 04:47:12;;;;;;;;;;;;;;;-0.18;nan;101110.44;5015165;28;20401;-86
2023/04/05 04:49:37;;;;;;;;;;;;;;;-0.20;nan;101114.03;5016713;28;19941;-84
2023/04/05 04:52:02;;;;;;;;;;;;;;;-0.23;nan;101110.66;5013347;28;20365;-84
2023/04/05 04:54:28;;;;;;;;;;;;;;;-0.26;nan;101113.41;5010601;28;20413;-83
2023/04/05 04:56:53;;;;;;;;;;;;;;;-0.30;nan;101116.19;5009296;28;19921;-85
2023/04/05 04:59:18;;;;;;;;;;;;;;;-0.31;nan;101122.28;5010831;28;19964;-85
2023/04/05 05:01:44;;;;;;;;;;;;;;;-0.32;nan;101118.84;5010447;28;19921;-85
2023/04/05 05:04:09;;;;;;;;;;;;;;;-0.30;nan;101124.81;5025696;28;19932;-85
2023/04/05 05:06:34;;;;;;;;;;;;;;;-0.15;nan;101132.84;5028152;28;19925;-84
2023/04/05 05:09:00;;;;;;;;;;;;;;;-0.20;nan;101124.44;5009498;28;19933;-85
2023/04/05 05:11:27;;;;;;;;;;;;;;;-0.22;nan;101125.31;5010683;28;19943;-83
2023/04/05 05:13:52;;;;;;;;;;;;;;;-0.24;nan;101118.50;5010117;28;19932;-84
2023/04/05 05:16:20;;;;;;;;;;;;;;;-0.27;nan;101122.09;5012177;28;19921;-84
2023/04/05 05:18:47;;;;;;;;;;;;;;;-0.24;nan;101126.31;5013073;28;19927;-83
2023/04/05 05:21:12;;;;;;;;;;;;;;;-0.23;nan;101123.66;5010304;28;19928;-87
2023/04/05 05:23:37;;;;;;;;;;;;;;;-0.22;nan;101122.72;5010010;28;20385;-83
2023/04/05 05:26:02;;;;;;;;;;;;;;;-0.15;nan;101125.06;5013926;28;19919;-86
2023/04/05 05:28:28;;;;;;;;;;;;;;;-0.11;nan;101122.25;5021574;28;19923;-84
2023/04/05 05:30:53;;;;;;;;;;;;;;;-0.07;nan;101135.94;5013876;28;19952;-84
2023/04/05 05:33:18;;;;;;;;;;;;;;;-0.04;nan;101128.88;5013592;28;19924;-84
2023/04/05 05:35:47;;;;;;;;;;;;;;;0.02;nan;101130.34;5012903;28;20016;-84
2023/04/05 05:38:12;;;;;;;;;;;;;;;0.01;nan;101130.44;5013048;28;19917;-83
2023/04/05 05:40:37;;;;;;;;;;;;;;;0.03;nan;101128.59;5013316;28;19921;-83
2023/04/05 05:43:03;;;;;;;;;;;;;;;0.08;nan;101118.84;5031315;28;19921;-85
2023/04/05 05:45:28;;;;;;;;;;;;;;;0.11;nan;101124.72;5029470;28;19960;-83
2023/04/05 05:47:55;;;;;;;;;;;;;;;0.22;nan;101126.84;5032470;28;19917;-85
2023/04/05 05:50:20;;;;;;;;;;;;;;;0.31;nan;101123.84;5032735;28;19951;-85
2023/04/05 05:52:45;;;;;;;;;;;;;;;0.37;nan;101128.72;5017137;28;19917;-85
2023/04/05 05:55:10;;;;;;;;;;;;;;;0.51;nan;101135.06;5025963;28;19921;-85
2023/04/05 05:57:37;;;;;;;;;;;;;;;0.74;nan;101129.59;5017907;28;19925;-83
2023/04/05 06:00:04;;;;;;;;;;;;;;;1.11;nan;101132.16;5035233;28;19917;-84
2023/04/05 06:02:31;;;;;;;;;;;;;;;1.37;nan;101131.69;5022208;28;20342;-83
2023/04/05 06:04:56;;;;;;;;;;;;;;;1.61;nan;101134.81;5016340;28;19921;-86
2023/04/05 06:07:22;;;;;;;;;;;;;;;2.02;nan;101141.38;5016533;28;19932;-84
2023/04/05 06:09:47;;;;;;;;;;;;;;;2.29;nan;101132.06;5035916;28;20216;-84
2023/04/05 06:12:12;;;;;;;;;;;;;;;2.73;nan;101131.38;5018036;28;19952;-85
2023/04/05 06:14:37;;;;;;;;;;;;;;;3.09;nan;101126.75;5017065;28;19921;-83
2023/04/05 06:17:02;;;;;;;;;;;;;;;3.48;nan;101131.41;5017695;28;19925;-85
2023/04/05 06:19:28;;;;;;;;;;;;;;;3.75;nan;101138.53;5017411;28;19918;-84
2023/04/05 06:21:53;;;;;;;;;;;;;;;4.03;nan;101145.56;5014381;28;20156;-84
2023/04/05 06:24:19;;;;;;;;;;;;;;;4.20;nan;101137.50;5034864;28;19928;-87
2023/04/05 06:26:45;;;;;;;;;;;;;;;4.49;nan;101144.47;5031315;28;19944;-85
2023/04/05 06:29:10;;;;;;;;;;;;;;;4.90;nan;101133.91;5015477;28;19960;-84
2023/04/05 06:31:36;;;;;;;;;;;;;;;5.20;nan;101132.84;5015332;28;19921;-84
2023/04/05 06:34:01;;;;;;;;;;;;;;;5.35;nan;101131.81;5015302;28;19917;-85
2023/04/05 06:36:30;;;;;;;;;;;;;;;5.47;nan;101138.00;5041329;28;20356;-84
2023/04/05 06:38:55;;;;;;;;;;;;;;;5.77;nan;101144.72;5040316;28;19921;-85
2023/04/05 06:41:20;;;;;;;;;;;;;;;5.96;nan;101129.44;5023783;28;19925;-85
2023/04/05 06:43:45;;;;;;;;;;;;;;;6.31;nan;101136.59;5018808;28;19917;-84
2023/04/05 06:46:13;;;;;;;;;;;;;;;6.25;nan;101135.25;5020968;28;19933;-86
2023/04/05 06:48:39;;;;;;;;;;;;;;;6.54;nan;101134.97;5016443;28;20000;-87
2023/04/05 06:51:04;;;;;;;;;;;;;;;6.98;nan;101128.22;5029173;28;19936;-85
2023/04/05 06:53:30;;;;;;;;;;;;;;;7.02;nan;101132.31;5023210;28;19925;-86
2023/04/05 06:55:56;;;;;;;;;;;;;;;7.40;nan;101131.25;5020526;28;19948;-86
2023/04/05 06:58:22;;;;;;;;;;;;;;;7.69;nan;101134.28;5035912;28;20425;-86
2023/04/05 07:00:47;;;;;;;;;;;;;;;7.58;nan;101135.09;5018084;28;20012;-87
2023/04/05 07:03:12;;;;;;;;;;;;;;;7.51;nan;101139.16;5012356;28;19921;-87
2023/04/05 07:05:38;;;;;;;;;;;;;;;7.92;nan;101144.84;5030766;28;20021;-87
2023/04/05 07:08:03;;;;;;;;;;;;;;;8.20;nan;101141.72;5029504;28;19925;-86
2023/04/05 07:10:28;;;;;;;;;;;;;;;8.32;nan;101141.66;5012492;28;19964;-85
2023/04/05 07:12:53;;;;;;;;;;;;;;;8.54;nan;101144.31;5015213;28;20395;-85
2023/04/05 07:15:18;;;;;;;;;;;;;;;8.47;nan;101140.50;5032010;28;19979;-85
2023/04/05 07:17:44;;;;;;;;;;;;;;;8.42;nan;101134.75;5022035;28;20386;-85
2023/04/05 07:20:09;;;;;;;;;;;;;;;8.69;nan;101142.22;5009942;28;20344;-85
2023/04/05 07:22:35;;;;;;;;;;;;;;;8.99;nan;101131.00;5033230;28;19920;-86
2023/04/05 07:25:01;;;;;;;;;;;;;;;8.99;nan;101128.34;5010920;28;19932;-85
2023/04/05 07:27:26;;;;;;;;;;;;;;;9.30;nan;101131.91;5012149;28;19925;-85
2023/04/05 07:29:51;;;;;;;;;;;;;;;9.48;nan;101129.50;5031818;28;20398;-85
2023/04/05 07:32:16;;;;;;;;;;;;;;;9.44;nan;101130.75;5030874;28;19968;-85
2023/04/05 07:34:42;;;;;;;;;;;;;;;9.71;nan;101124.09;5028311;28;19956;-85
2023/04/05 07:37:07;;;;;;;;;;;;;;;10.12;nan;101124.94;5012042;28;20378;-85
2023/04/05 07:39:32;;;;;;;;;;;;;;;10.39;nan;101130.50;5013593;28;19925;-85
2023/04/05 07:41:57;;;;;;;;;;;;;;;10.96;nan;101122.72;5013360;28;19947;-85
2023/04/05 07:44:23;;;;;;;;;;;;;;;11.30;nan;101122.31;5013084;28;20008;-86
2023/04/05 07:46:48;;;;;;;;;;;;;;;11.85;nan;101122.44;5012346;28;20321;-85
2023/04/05 07:49:13;;;;;;;;;;;;;;;12.37;nan;101116.63;5013060;28;19929;-85
2023/04/05 07:51:38;;;;;;;;;;;;;;;12.71;nan;101115.97;5030476;28;20361;-86
2023/04/05 07:54:06;;;;;;;;;;;;;;;12.76;nan;101119.00;5027769;28;19983;-86
2023/04/05 07:56:31;;;;;;;;;;;;;;;12.48;nan;101120.88;5013727;28;20402;-85
2023/04/05 07:58:57;;;;;;;;;;;;;;;12.63;nan;101122.06;5019359;28;19921;-85
2023/04/05 08:01:26;;;;;;;;;;;;;;;12.48;nan;101123.53;5011342;28;20002;-86
2023/04/05 08:03:52;;;;;;;;;;;;;;;13.08;nan;101122.94;5031101;28;19991;-85
2023/04/05 08:06:17;;;;;;;;;;;;;;;13.57;nan;101126.00;5012874;28;20487;-85
2023/04/05 08:08:42;;;;;;;;;;;;;;;13.76;nan;101117.78;5028350;28;19927;-87
2023/04/05 08:11:08;;;;;;;;;;;;;;;14.01;nan;101124.06;5004730;28;19921;-87
2023/04/05 08:13:33;;;;;;;;;;;;;;;13.92;nan;101127.69;5000202;28;19921;-88
2023/04/05 08:15:59;;;;;;;;;;;;;;;13.62;nan;101134.31;5007116;28;20275;-88
2023/04/05 08:18:24;;;;;;;;;;;;;;;13.95;nan;101124.69;5019821;28;19917;-88
2023/04/05 08:20:53;;;;;;;;;;;;;;;14.44;nan;101118.72;5029117;28;19925;-88
2023/04/05 08:23:18;;;;;;;;;;;;;;;14.71;nan;101124.81;5025817;28;19929;-87
2023/04/05 08:25:43;;;;;;;;;;;;;;;14.55;nan;101113.13;5015601;28;19925;-86
2023/04/05 08:28:09;;;;;;;;;;;;;;;15.05;nan;101122.00;5023686;28;19929;-87
2023/04/05 08:30:34;;;;;;;;;;;;;;;15.26;nan;101117.00;5025996;28;20478;-87
2023/04/05 08:32:59;;;;;;;;;;;;;;;15.48;nan;101110.13;5009556;28;20430;-87
2023/04/05 08:35:25;;;;;;;;;;;;;;;15.47;nan;101110.31;5016476;28;19925;-88
2023/04/05 08:37:50;;;;;;;;;;;;;;;15.40;nan;101115.47;5020907;28;19983;-86
2023/04/05 08:40:15;;;;;;;;;;;;;;;15.31;nan;101113.00;5024544;28;20402;-86
2023/04/05 08:43:00;;;;;;;;;;;;;;;14.98;nan;101115.66;5012203;28;19921;-87
2023/04/05 08:45:25;;;;;;;;;;;;;;;15.80;nan;101113.75;5024873;28;19928;-86
2023/04/05 08:47:52;;;;;;;;;;;;;;;16.83;nan;101112.75;5026874;28;19921;-87
2023/04/05 08:50:17;;;;;;;;;;;;;;;17.56;nan;101113.91;5024429;28;19921;-87
2023/04/05 08:52:47;;;;;;;;;;;;;;;17.89;nan;101121.59;5026768;28;19921;-86
2023/04/05 08:55:12;;;;;;;;;;;;;;;17.97;nan;101113.50;5027278;28;20011;-87
2023/04/05 08:57:40;;;;;;;;;;;;;;;17.87;nan;101109.44;5025176;28;20004;-87
2023/04/05 09:00:07;;;;;;;;;;;;;;;17.10;nan;101108.66;5022391;28;19921;-87
2023/04/05 09:02:32;;;;;;;;;;;;;;;16.41;nan;101110.47;5013188;28;19921;-87
2023/04/05 09:04:58;;;;;;;;;;;;;;;17.07;nan;101113.56;5028482;28;19970;-86
2023/04/05 09:07:24;;;;;;;;;;;;;;;18.09;nan;101096.94;5010529;28;20081;-86
2023/04/05 09:09:52;;;;;;;;;;;;;;;18.81;nan;101096.13;5025802;28;19925;-86
2023/04/05 09:12:19;;;;;;;;;;;;;;;19.16;nan;101090.81;5007407;28;20205;-86
2023/04/05 09:14:45;;;;;;;;;;;;;;;19.02;nan;101093.41;5026213;28;21373;-86
2023/04/05 09:17:11;;;;;;;;;;;;;;;18.96;nan;101091.50;5023791;28;20015;-87
2023/04/05 09:19:36;;;;;;;;;;;;;;;19.26;nan;101096.69;5009570;28;19996;-87
2023/04/05 09:22:03;;;;;;;;;;;;;;;19.29;nan;101088.25;5019640;28;19918;-87
2023/04/05 09:24:38;;;;;;;;;;;;;;;19.08;nan;101099.84;5026839;28;19928;-86
2023/04/05 09:27:05;;;;;;;;;;;;;;;19.21;nan;101096.44;5028133;28;19929;-86
2023/04/05 09:29:30;;;;;;;;;;;;;;;18.93;nan;101089.22;5013977;28;19929;-87
2023/04/05 09:31:55;;;;;;;;;;;;;;;18.97;nan;101095.81;5024929;28;19921;-87
2023/04/05 09:34:21;;;;;;;;;;;;;;;18.76;nan;101099.38;5020271;28;20313;-87
2023/04/05 09:36:46;;;;;;;;;;;;;;;18.44;nan;101092.59;5031690;28;19925;-88
2023/04/05 09:39:11;;;;;;;;;;;;;;;18.98;nan;101086.78;5014758;28;19921;-87
2023/04/05 09:41:38;;;;;;;;;;;;;;;19.27;nan;101087.63;5030915;28;19921;-86
2023/04/05 09:44:03;;;;;;;;;;;;;;;19.47;nan;101083.22;5029898;28;19921;-86
2023/04/05 09:46:32;;;;;;;;;;;;;;;19.46;nan;101086.09;5024525;28;20356;-87
2023/04/05 09:48:57;;;;;;;;;;;;;;;19.39;nan;101082.53;5032657;28;19921;-86
2023/04/05 09:51:30;;;;;;;;;;;;;;;19.21;nan;101072.31;5014481;28;19979;-87
2023/04/05 09:54:03;;;;;;;;;;;;;;;18.66;nan;101074.69;5032403;28;20286;-87
2023/04/05 09:56:29;;;;;;;;;;;;;;;18.37;nan;101073.78;5024344;28;20279;-87
2023/04/05 09:59:03;;;;;;;;;;;;;;;18.31;nan;101082.59;5032639;28;20364;-86
2023/04/05 10:01:31;;;;;;;;;;;;;;;18.81;nan;101072.81;5033252;28;19917;-87
2023/04/05 10:03:58;;;;;;;;;;;;;;;18.82;nan;101082.50;5013673;28;19921;-86
2023/04/05 10:06:33;;;;;;;;;;;;;;;19.23;nan;101080.97;5030067;28;20008;-86
2023/04/05 10:08:58;;;;;;;;;;;;;;;18.86;nan;101086.47;5039785;28;19952;-86
2023/04/05 10:11:24;;;;;;;;;;;;;;;19.03;nan;101078.16;5033020;28;20369;-87
2023/04/05 10:13:50;;;;;;;;;;;;;;;19.14;nan;101077.63;5024140;28;19933;-84
2023/04/05 10:16:20;;;;;;;;;;;;;;;19.80;nan;101081.78;5033937;28;20426;-84
2023/04/05 10:18:50;;;;;;;;;;;;;;;20.32;nan;101083.81;5028633;28;19928;-84
2023/04/05 10:21:19;;;;;;;;;;;;;;;21.51;nan;101079.59;5038814;28;19975;-86
2023/04/05 10:23:46;;;;;;;;;;;;;;;20.60;nan;101080.22;5050751;28;20248;-86
2023/04/05 10:26:27;;;;;;;;;;;;;;;19.69;nan;101069.75;5040134;28;19972;-86
2023/04/05 10:28:56;;;;;;;3.00;2.20;;;;;;;;;;5008504;28;20421;-85
2023/04/05 10:31:34;;;;;;;4.38;2.60;;;;;;;20.92;nan;100919.97;5039195;28;20402;-86
2023/04/05 10:34:04;;;;;;;3.50;2.53;;;;;;;;;;5032400;28;20110;-85
2023/04/05 10:36:38;;;;;;;6.93;2.72;;;;;;;20.09;nan;100900.78;5029347;28;20114;-86
2023/04/05 10:39:11;;;;;;;4.03;2.40;;;;;;;;;;5026336;28;20104;-85
2023/04/05 10:41:40;;;;;;;3.78;2.65;;;;;;;;;;5031090;28;20042;-85
2023/04/05 10:44:08;;;;;;;4.15;2.60;;;;;;;;;;5013478;28;20033;-85
2023/04/05 10:46:33;;;;;;;3.83;2.38;;;;;;;;;;5014499;28;20041;-85
2023/04/05 10:49:15;;;;;;;3.40;2.40;;;;;;;22.26;nan;100871.69;5031440;28;20128;-86
2023/04/05 10:51:42;;;;;;;4.15;2.42;;;;;;;;;;5033464;28;20368;-85
2023/04/05 10:54:09;;;;;;;4.75;2.90;;;;;;;22.33;nan;100903.94;5031568;28;20052;-86
2023/04/05 10:56:35;;;;;;;4.72;2.90;;;;;;;;;;5010096;28;20037;-86
2023/04/05 10:59:01;;;;;;;5.18;3.20;;;;;;;23.73;nan;100887.88;5027543;28;20045;-87
2023/04/05 11:01:26;;;;;;;4.13;2.80;;;;;;;;;;5017617;28;20078;-85
2023/04/05 11:03:53;;;;;;;4.63;2.70;;;;;;;24.43;nan;100899.03;5042657;28;20101;-86
2023/04/05 11:06:27;;;;;;;3.63;2.50;;;;;;;24.07;nan;100900.88;5034966;28;20041;-86
2023/04/05 11:08:59;;;;;;;35.75;28.17;;;;;;;24.32;nan;100916.91;5032831;28;20026;-86
2023/04/05 11:11:25;;;;;;;20.45;14.00;;;;;;;;;;5008330;28;20034;-86
2023/04/05 11:13:55;;;;;;;4.85;3.65;;;;;;;25.10;nan;100898.63;5016084;28;20394;-86
2023/04/05 11:16:21;;;;;;;3.90;2.50;;;;;;;;;;5025709;28;20029;-86
2023/04/05 11:18:51;;;;;;;2.83;2.25;;;;;;;25.58;nan;100908.28;5010545;28;20037;-85
2023/04/05 11:21:20;;;;;;;3.33;2.08;;;;;;;;;;5031512;28;20031;-86
2023/04/05 11:24:10;;;;;;;3.20;2.22;;;;;;;25.04;nan;101024.88;5029205;28;20164;-84
2023/04/05 11:26:38;;;;;;;2.83;2.20;;;;;;;25.47;nan;101025.59;5025993;28;20037;-84
2023/04/05 11:29:04;;;;;;;3.85;2.70;;;;;;;23.50;nan;101018.16;5030707;28;20041;-83
2023/04/05 11:31:29;;;;;;;3.78;2.30;;;;;;;23.64;nan;101020.69;5010048;28;20053;-84
2023/04/05 11:33:55;;;;;;;3.20;2.38;;;;;;;23.56;nan;101016.44;5038713;28;20110;-85
2023/04/05 11:36:44;;;;;;;3.90;2.22;;;;;;;22.93;nan;101011.25;5029273;28;20037;-84
2023/04/05 11:39:21;;;;;;;4.63;2.53;;;;;;;22.41;nan;101015.00;5028368;28;20041;-84
2023/04/05 11:42:14;;;;;;;3.80;2.35;;;;;;;22.77;nan;101002.69;5008966;28;20506;-83
2023/04/05 11:44:47;;;;;;;4.03;2.60;;;;;;;23.39;nan;101010.81;5023401;28;20038;-83
2023/04/05 11:47:16;;;;;;;4.05;2.40;;;;;;;22.43;nan;100998.63;5023943;28;20083;-82
2023/04/05 11:49:42;;;;;;;4.55;2.80;;;;;;;22.18;nan;101003.91;5025329;28;20197;-83
2023/04/05 11:52:15;;;;;;;5.13;3.03;;;;;;;21.80;nan;101004.75;5009421;28;20595;-84
2023/04/05 11:54:45;;;;;;;3.95;2.78;;;;;;;20.84;nan;101005.38;5030133;28;20029;-84
2023/04/05 11:57:35;;;;;;;5.65;2.55;;;;;;;19.35;nan;101003.50;5036894;28;20124;-83
2023/04/05 12:00:00;;;;;;;5.53;3.20;;;;;;;19.80;nan;101004.78;5023253;28;20569;-84
2023/04/05 12:02:26;;;;;;;3.45;2.60;;;;;;;19.43;nan;100989.94;5038581;28;20076;-84
2023/04/05 12:04:58;;;;;;;4.30;2.90;;;;;;;18.60;nan;100990.59;5015149;28;20037;-86
2023/04/05 12:07:28;;;;;;;4.10;2.90;;;;;;;17.14;nan;100989.72;5024339;28;20486;-85
2023/04/05 12:10:01;;;;;;;9.25;6.05;;;;;;;16.68;nan;100988.97;5028189;28;20036;-85
2023/04/05 12:12:27;;;;;;;3.13;2.20;;;;;;;16.21;nan;100982.84;5029234;28;20702;-84
2023/04/05 12:15:00;;;;;;;4.20;2.60;;;;;;;15.51;nan;100992.50;5034180;28;20041;-85
2023/04/05 12:17:46;;;;;;;4.30;2.60;;;;;;;15.26;nan;100977.63;5022547;28;20049;-84
2023/04/05 12:20:18;;;;;;;10.32;7.75;;;;;;;15.92;nan;100975.50;4999708;28;22256;-84
2023/04/05 12:22:44;;;;;;;4.30;2.92;;;;;;;15.93;nan;100970.00;5010410;28;20057;-84
2023/04/05 12:25:10;;;;;;;5.75;2.95;;;;;;;15.43;nan;100975.72;5023709;28;20088;-85
2023/04/05 12:27:37;;;;;;;3.47;2.50;;;;;;;15.04;nan;100961.38;5009307;28;20076;-85
2023/04/05 12:30:15;;;;;;;4.47;2.95;;;;;;;14.92;nan;100960.06;5010602;28;20053;-85
2023/04/05 12:32:41;;;;;;;6.28;3.22;;;;;;;14.58;nan;100957.59;5008110;28;20034;-85
2023/04/05 12:35:10;;;;;;;4.13;2.90;;;;;;;14.01;nan;100958.34;5029618;28;20042;-85
2023/04/05 12:37:39;;;;;;;4.88;2.80;;;;;;;13.86;nan;100952.84;5033929;28;20029;-84
2023/04/05 12:40:05;;;;;;;4.57;3.17;;;;;;;14.03;nan;100959.84;5013681;28;20619;-84
2023/04/05 12:42:34;;;;;;;3.72;2.70;;;;;;;14.06;nan;100950.72;5030828;28;20050;-85
2023/04/05 12:45:09;;;;;;;5.93;3.30;;;;;;;14.33;nan;100948.78;5017458;28;20087;-85
2023/04/05 12:47:35;;;;;;;5.40;3.83;;;;;;;14.39;nan;100959.56;5005707;28;20029;-85
2023/04/05 12:50:14;;;;;;;4.60;3.60;;;;;;;14.19;nan;100953.75;5015391;28;20046;-85
2023/04/05 12:52:51;;;;;;;4.57;3.28;;;;;;;13.94;nan;100946.72;5027763;28;20099;-86